Gardi, Georgia
Current Conditions -  °F | °C
As of 3:55 PM on Thursday 23 Oct 2014 (Local Time) from KJES Reporting Station
Clear Clear  
Wind Chill: 75°   Ceiling: Unl
Heat Index: 75°   Visibility: 10mi
Dew Point: 46°   Wind: 5mph
Humidity: 36%   Direction: 310°NW
Pressure: 30"   Gusts: NA
Location:  31.5041°N, 81.8277°W
Report Text: KJES 231955Z AUTO 31004KT 10SM CLR 24/08 A3000 RMK AO2
Loading
Personal Weather Stations






























Interactive Weather Map
Tropical Storm Tracking
New forecast layout! Learn more

10-Day Weather Forecast

Advertisements
Track Severe Weather on mobile